createdAt,value
2022-11-05T00:01:51.088Z,96.08
2022-11-05T00:04:36.100Z,95.76
2022-11-05T00:07:39.668Z,95.86
2022-11-05T00:10:13.134Z,95.57
2022-11-05T00:12:58.328Z,95.23
2022-11-05T00:15:43.460Z,95.68
2022-11-05T00:18:09.986Z,95.56
2022-11-05T00:20:36.488Z,95.25
2022-11-05T00:23:22.698Z,95.29
2022-11-05T00:26:03.245Z,95.72
2022-11-05T00:28:30.171Z,95.54
2022-11-05T00:31:04.605Z,95.23
2022-11-05T00:33:31.600Z,95.22
2022-11-05T00:35:58.077Z,95.76
2022-11-05T00:38:24.722Z,95.47
2022-11-05T00:40:51.184Z,95.30
2022-11-05T00:43:36.261Z,95.80
2022-11-05T00:46:02.766Z,95.55
2022-11-05T00:48:47.645Z,95.24
2022-11-05T00:51:14.189Z,95.38
2022-11-05T00:53:40.651Z,95.29
2022-11-05T00:56:07.174Z,94.91
2022-11-05T00:58:33.620Z,95.20
2022-11-05T01:01:01.040Z,95.33
2022-11-05T01:03:33.049Z,94.87
2022-11-05T01:06:14.552Z,94.93
2022-11-05T01:08:42.537Z,95.10
2022-11-05T01:11:32.852Z,95.05
2022-11-05T01:14:05.049Z,95.31
2022-11-05T01:16:31.994Z,95.24
2022-11-05T01:18:58.679Z,95.55
2022-11-05T01:21:25.187Z,95.85
2022-11-05T01:23:51.733Z,95.63
2022-11-05T01:26:18.267Z,96.02
2022-11-05T01:28:44.950Z,95.90
2022-11-05T01:31:11.525Z,95.98
2022-11-05T01:33:37.982Z,96.28
2022-11-05T01:36:05.006Z,96.77
2022-11-05T01:38:31.476Z,96.93
2022-11-05T01:40:57.980Z,97.56
2022-11-05T01:43:24.476Z,97.89
2022-11-05T01:45:56.816Z,97.63
2022-11-05T01:48:28.201Z,98.62
2022-11-05T01:51:03.065Z,98.73
2022-11-05T01:53:38.414Z,99.05
2022-11-05T01:56:24.629Z,99.51
2022-11-05T01:58:57.497Z,99.32
2022-11-05T02:01:24.529Z,99.53
2022-11-05T02:03:53.853Z,99.68
2022-11-05T02:06:21.390Z,99.73
2022-11-05T02:09:07.216Z,100.00
2022-11-05T02:11:33.734Z,100.00
2022-11-05T02:14:00.340Z,100.00
2022-11-05T02:16:39.919Z,100.00
2022-11-05T02:19:25.042Z,100.00
2022-11-05T02:22:15.589Z,100.00
2022-11-05T02:24:57.088Z,100.00
2022-11-05T02:27:53.300Z,100.00
2022-11-05T02:30:55.403Z,99.92
2022-11-05T02:33:33.996Z,99.43
2022-11-05T02:36:03.389Z,99.29
2022-11-05T02:38:53.794Z,99.26
2022-11-05T02:41:29.629Z,98.80
2022-11-05T02:44:02.137Z,99.39
2022-11-05T02:46:34.435Z,98.76
2022-11-05T02:49:23.405Z,98.55
2022-11-05T02:51:58.246Z,98.23
2022-11-05T02:54:50.190Z,98.05
2022-11-05T02:57:19.533Z,98.06
2022-11-05T02:59:46.077Z,97.85
2022-11-05T03:02:12.867Z,97.58
2022-11-05T03:04:39.441Z,97.46
2022-11-05T03:07:27.350Z,96.89
2022-11-05T03:10:32.644Z,97.13
2022-11-05T03:13:04.313Z,97.27
2022-11-05T03:15:52.432Z,97.05
2022-11-05T03:18:25.731Z,97.26
2022-11-05T03:21:04.320Z,97.09
2022-11-05T03:23:42.574Z,96.60
2022-11-05T03:26:31.767Z,97.27
2022-11-05T03:29:06.460Z,98.06
2022-11-05T03:31:35.122Z,97.68
2022-11-05T03:34:03.379Z,98.25
2022-11-05T03:36:41.173Z,98.39
2022-11-05T03:39:11.038Z,98.77
2022-11-05T03:41:39.413Z,98.48
2022-11-05T03:44:06.898Z,98.98
2022-11-05T03:46:38.626Z,98.93
2022-11-05T03:49:06.629Z,98.74
2022-11-05T03:51:38.366Z,99.51
2022-11-05T03:54:05.261Z,99.35
2022-11-05T03:56:42.837Z,100.00
2022-11-05T03:59:10.206Z,99.76
2022-11-05T04:01:38.022Z,99.94
2022-11-05T04:04:08.330Z,100.00
2022-11-05T04:06:53.827Z,100.00
2022-11-05T04:09:39.215Z,100.00
2022-11-05T04:12:24.370Z,100.00
2022-11-05T04:14:50.825Z,100.00
2022-11-05T04:17:17.272Z,99.71
2022-11-05T04:20:03.258Z,99.44
2022-11-05T04:22:52.912Z,99.64
2022-11-05T04:25:20.119Z,99.07
2022-11-05T04:27:46.700Z,99.02
2022-11-05T04:30:21.405Z,99.15
2022-11-05T04:33:04.549Z,98.64
2022-11-05T04:35:36.855Z,99.14
2022-11-05T04:38:05.506Z,98.98
2022-11-05T04:40:32.060Z,98.77
2022-11-05T04:42:58.583Z,99.04
2022-11-05T04:45:26.325Z,99.08
2022-11-05T04:47:52.800Z,98.80
2022-11-05T04:50:19.290Z,99.42
2022-11-05T04:52:45.743Z,99.42
2022-11-05T04:55:12.379Z,98.91
2022-11-05T04:57:38.861Z,99.40
2022-11-05T05:00:07.493Z,99.13
2022-11-05T05:02:34.949Z,99.44
2022-11-05T05:05:01.472Z,98.95
2022-11-05T05:07:28.489Z,99.24
2022-11-05T05:09:54.958Z,99.30
2022-11-05T05:12:22.263Z,99.59
2022-11-05T05:14:49.205Z,99.06
2022-11-05T05:17:16.265Z,99.33
2022-11-05T05:20:01.069Z,98.92
2022-11-05T05:22:27.774Z,98.79
2022-11-05T05:24:55.550Z,99.08
2022-11-05T05:27:23.460Z,99.00
2022-11-05T05:29:50.644Z,99.38
2022-11-05T05:32:17.261Z,99.66
2022-11-05T05:34:43.713Z,100.00
2022-11-05T05:37:10.183Z,100.00
2022-11-05T05:39:36.634Z,100.00
2022-11-05T05:42:03.086Z,100.00
2022-11-05T05:44:29.536Z,100.00
2022-11-05T05:46:55.979Z,100.00
2022-11-05T05:49:22.442Z,100.00
2022-11-05T05:51:49.634Z,100.00
2022-11-05T05:54:17.078Z,100.00
2022-11-05T05:56:46.237Z,100.00
2022-11-05T05:59:12.694Z,100.00
2022-11-05T06:01:39.616Z,100.00
2022-11-05T06:04:06.150Z,100.00
2022-11-05T06:06:32.593Z,100.00
2022-11-05T06:08:59.048Z,100.00
2022-11-05T06:11:25.854Z,100.00
2022-11-05T06:13:52.371Z,100.00
2022-11-05T06:16:21.350Z,100.00
2022-11-05T06:18:47.811Z,100.00
2022-11-05T06:21:17.000Z,100.00
2022-11-05T06:23:45.612Z,100.00
2022-11-05T06:26:14.569Z,100.00
2022-11-05T06:28:42.041Z,100.00
2022-11-05T06:31:09.656Z,100.00
2022-11-05T06:33:36.114Z,100.00
2022-11-05T06:36:04.257Z,100.00
2022-11-05T06:38:35.168Z,100.00
2022-11-05T06:41:07.260Z,100.00
2022-11-05T06:43:36.476Z,100.00
2022-11-05T06:46:03.302Z,100.00
2022-11-05T06:48:30.156Z,100.00
2022-11-05T06:50:56.603Z,100.00
2022-11-05T06:53:23.070Z,100.00
2022-11-05T06:55:49.558Z,100.00
2022-11-05T06:58:16.384Z,100.00
2022-11-05T07:00:42.935Z,100.00
2022-11-05T07:03:11.043Z,100.00
2022-11-05T07:05:40.563Z,100.00
2022-11-05T07:08:07.050Z,100.00
2022-11-05T07:10:33.504Z,100.00
2022-11-05T07:13:03.738Z,100.00
2022-11-05T07:15:33.153Z,100.00
2022-11-05T07:18:00.432Z,100.00
2022-11-05T07:20:32.326Z,100.00
2022-11-05T07:23:20.372Z,99.13
2022-11-05T07:25:46.856Z,98.49
2022-11-05T07:28:14.369Z,97.19
2022-11-05T07:30:40.832Z,92.71
2022-11-05T07:33:07.396Z,87.38
2022-11-05T07:35:33.855Z,84.25
2022-11-05T07:38:00.313Z,83.97
2022-11-05T07:40:28.716Z,83.52
2022-11-05T07:42:59.752Z,83.40
2022-11-05T07:45:27.441Z,82.14
2022-11-05T07:47:59.130Z,80.80
2022-11-05T07:50:27.074Z,80.18
2022-11-05T07:52:53.651Z,82.46
2022-11-05T07:55:20.723Z,84.54
2022-11-05T07:57:48.994Z,86.28
2022-11-05T08:00:21.106Z,86.91
2022-11-05T08:03:00.911Z,85.30
2022-11-05T08:05:44.465Z,85.75
2022-11-05T08:08:12.626Z,86.89
2022-11-05T08:10:39.396Z,86.12
2022-11-05T08:13:07.047Z,86.91
2022-11-05T08:15:34.204Z,86.82
2022-11-05T08:18:20.842Z,88.31
2022-11-05T08:20:47.474Z,88.80
2022-11-05T08:23:14.512Z,89.26
2022-11-05T08:25:41.912Z,87.54
2022-11-05T08:28:11.406Z,86.71
2022-11-05T08:30:37.966Z,85.90
2022-11-05T08:33:07.037Z,85.82
2022-11-05T08:35:35.001Z,85.41
2022-11-05T08:38:03.121Z,85.63
2022-11-05T08:40:34.645Z,84.74
2022-11-05T08:43:05.319Z,82.10
2022-11-05T08:45:31.764Z,79.26
2022-11-05T08:48:03.119Z,77.87
2022-11-05T08:50:29.803Z,77.11
2022-11-05T08:52:56.438Z,77.37
2022-11-05T08:55:23.049Z,79.57
2022-11-05T08:57:55.220Z,80.73
2022-11-05T09:00:21.659Z,82.33
2022-11-05T09:02:48.113Z,83.02
2022-11-05T09:05:14.561Z,84.07
2022-11-05T09:07:41.049Z,85.48
2022-11-05T09:10:07.733Z,85.66
2022-11-05T09:12:34.226Z,86.64
2022-11-05T09:15:00.685Z,87.79
2022-11-05T09:17:27.153Z,87.97
2022-11-05T09:19:53.645Z,89.05
2022-11-05T09:22:20.092Z,89.91
2022-11-05T09:24:46.557Z,89.76
2022-11-05T09:27:14.517Z,89.62
2022-11-05T09:29:41.688Z,90.20
2022-11-05T09:32:08.588Z,89.37
2022-11-05T09:34:35.477Z,89.50
2022-11-05T09:37:02.011Z,88.85
2022-11-05T09:39:28.472Z,88.16
2022-11-05T09:41:59.267Z,86.63
2022-11-05T09:44:29.069Z,85.17
2022-11-05T09:47:01.002Z,83.83
2022-11-05T09:49:39.694Z,82.39
2022-11-05T09:52:19.084Z,81.87
2022-11-05T09:54:47.984Z,81.45
2022-11-05T09:57:18.899Z,81.07
2022-11-05T09:59:48.395Z,80.68
2022-11-05T10:02:46.176Z,79.85
2022-11-05T10:05:13.755Z,79.48
2022-11-05T10:07:47.189Z,79.37
2022-11-05T10:10:41.182Z,78.61
2022-11-05T10:13:13.565Z,78.20
2022-11-05T10:15:44.276Z,77.92
2022-11-05T10:18:19.401Z,77.49
2022-11-05T10:20:48.456Z,77.45
2022-11-05T10:23:19.598Z,76.86
2022-11-05T10:25:50.532Z,77.30
2022-11-05T10:28:19.792Z,77.26
2022-11-05T10:30:47.714Z,77.13
2022-11-05T10:33:18.590Z,77.09
2022-11-05T10:35:53.587Z,76.56
2022-11-05T10:38:20.092Z,76.80
2022-11-05T10:41:27.707Z,77.31
2022-11-05T10:44:01.033Z,77.15
2022-11-05T10:46:36.279Z,76.39
2022-11-05T10:49:18.813Z,76.46
2022-11-05T10:51:46.723Z,76.82
2022-11-05T10:54:19.634Z,77.10
2022-11-05T10:56:46.223Z,77.40
2022-11-05T10:59:24.140Z,77.68
2022-11-05T11:02:17.473Z,76.72
2022-11-05T11:04:43.995Z,76.37
2022-11-05T11:07:28.546Z,76.28
2022-11-05T11:09:55.111Z,76.57
2022-11-05T11:12:24.636Z,77.13
2022-11-05T11:15:15.056Z,78.57
2022-11-05T11:17:41.591Z,78.79
2022-11-05T11:20:24.467Z,79.24
2022-11-05T11:23:12.636Z,79.39
2022-11-05T11:25:46.179Z,79.71
2022-11-05T11:28:20.020Z,79.93
2022-11-05T11:30:49.173Z,79.60
2022-11-05T11:33:20.231Z,79.84
2022-11-05T11:35:47.396Z,79.57
2022-11-05T11:38:15.785Z,79.89
2022-11-05T11:40:42.459Z,80.38
2022-11-05T11:43:35.789Z,78.84
2022-11-05T11:46:07.777Z,78.42
2022-11-05T11:48:36.394Z,78.92
2022-11-05T11:51:20.102Z,78.78
2022-11-05T11:53:49.703Z,79.50
2022-11-05T11:56:18.965Z,79.89
2022-11-05T11:58:49.587Z,80.33
2022-11-05T12:01:39.780Z,80.94
2022-11-05T12:04:35.307Z,81.66
2022-11-05T12:07:28.094Z,82.32
2022-11-05T12:10:14.892Z,83.24
2022-11-05T12:12:49.607Z,84.10
2022-11-05T12:15:37.755Z,85.12
2022-11-05T12:18:06.507Z,84.52
2022-11-05T12:20:57.828Z,83.29
2022-11-05T12:23:34.678Z,80.63
2022-11-05T12:26:30.129Z,75.67
2022-11-05T12:29:35.788Z,73.59
2022-11-05T12:32:20.951Z,73.41
2022-11-05T12:35:10.898Z,74.89
2022-11-05T12:38:12.349Z,75.57
2022-11-05T12:41:00.495Z,76.79
2022-11-05T12:43:32.760Z,77.93
2022-11-05T12:46:23.172Z,78.09
2022-11-05T12:49:20.674Z,79.07
2022-11-05T12:52:03.516Z,79.65
2022-11-05T12:54:51.725Z,79.76
2022-11-05T12:57:19.867Z,80.15
2022-11-05T12:59:52.444Z,80.68
2022-11-05T13:02:24.914Z,80.87
2022-11-05T13:04:59.232Z,81.38
2022-11-05T13:07:32.623Z,81.65
2022-11-05T13:10:06.294Z,82.19
2022-11-05T13:12:35.549Z,80.30
2022-11-05T13:15:28.267Z,78.01
2022-11-05T13:18:13.238Z,76.79
2022-11-05T13:20:41.577Z,77.77
2022-11-05T13:23:29.880Z,76.10
2022-11-05T13:26:00.640Z,73.96
2022-11-05T13:28:35.751Z,70.80
2022-11-05T13:31:03.630Z,70.08
2022-11-05T13:33:44.556Z,70.86
2022-11-05T13:37:06.441Z,72.78
2022-11-05T13:39:53.297Z,72.40
2022-11-05T13:42:47.817Z,73.85
2022-11-05T13:45:42.461Z,75.55
2022-11-05T13:48:32.326Z,76.57
2022-11-05T13:51:17.564Z,78.30
2022-11-05T13:54:22.762Z,79.80
2022-11-05T13:57:07.170Z,80.58
2022-11-05T14:00:09.066Z,81.46
2022-11-05T14:02:42.387Z,83.21
2022-11-05T14:05:22.616Z,83.09
2022-11-05T14:07:49.508Z,84.37
2022-11-05T14:10:39.038Z,84.99
2022-11-05T14:13:18.075Z,86.21
2022-11-05T14:16:02.109Z,86.53
2022-11-05T14:18:37.052Z,87.38
2022-11-05T14:21:05.529Z,86.51
2022-11-05T14:23:40.138Z,86.65
2022-11-05T14:26:24.443Z,87.02
2022-11-05T14:29:10.675Z,88.09
2022-11-05T14:34:56.917Z,90.17
2022-11-05T14:37:25.999Z,91.37
2022-11-05T14:39:53.677Z,91.96
2022-11-05T14:42:24.798Z,92.25
2022-11-05T14:45:02.213Z,93.63
2022-11-05T14:47:38.551Z,95.01
2022-11-05T14:50:11.910Z,95.96
2022-11-05T14:52:39.673Z,96.20
2022-11-05T14:55:07.243Z,97.18
2022-11-05T14:57:42.447Z,98.45
2022-11-05T15:00:40.483Z,98.30
2022-11-05T15:03:28.374Z,99.27
2022-11-05T15:06:04.861Z,99.77
2022-11-05T15:08:54.264Z,100.00
2022-11-05T15:11:30.525Z,100.00
2022-11-05T15:14:16.316Z,100.00
2022-11-05T15:16:43.730Z,100.00
2022-11-05T15:19:34.042Z,100.00
2022-11-05T15:22:04.433Z,100.00
2022-11-05T15:24:31.267Z,100.00
2022-11-05T15:27:08.296Z,100.00
2022-11-05T15:29:34.739Z,100.00
2022-11-05T15:32:01.214Z,100.00
2022-11-05T15:34:33.006Z,100.00
2022-11-05T15:37:12.536Z,100.00
2022-11-05T15:39:41.833Z,100.00
2022-11-05T15:42:18.730Z,100.00
2022-11-05T15:44:47.481Z,100.00
2022-11-05T15:47:15.100Z,100.00
2022-11-05T15:49:43.379Z,100.00
2022-11-05T15:52:17.702Z,100.00
2022-11-05T15:54:44.690Z,100.00
2022-11-05T15:57:28.529Z,100.00
2022-11-05T15:59:54.984Z,100.00
2022-11-05T16:02:35.652Z,100.00
2022-11-05T16:05:06.642Z,100.00
2022-11-05T16:07:33.219Z,100.00
2022-11-05T16:10:00.984Z,100.00
2022-11-05T16:12:30.258Z,100.00
2022-11-05T16:15:17.689Z,100.00
2022-11-05T16:17:55.965Z,100.00
2022-11-05T16:20:32.259Z,100.00
2022-11-05T16:23:04.435Z,100.00
2022-11-05T16:25:43.561Z,100.00
2022-11-05T16:28:30.061Z,100.00
2022-11-05T16:31:01.630Z,100.00
2022-11-05T16:33:40.501Z,100.00
2022-11-05T16:36:07.938Z,100.00
2022-11-05T16:38:34.410Z,100.00
2022-11-05T16:41:00.902Z,100.00
2022-11-05T16:43:27.548Z,100.00
2022-11-05T16:45:55.877Z,100.00
2022-11-05T16:48:22.483Z,100.00
2022-11-05T16:50:49.039Z,100.00
2022-11-05T16:53:15.769Z,100.00
2022-11-05T16:55:43.538Z,100.00
2022-11-05T16:58:24.260Z,100.00
2022-11-05T17:00:52.917Z,100.00
2022-11-05T17:03:19.562Z,100.00
2022-11-05T17:05:46.197Z,100.00
2022-11-05T17:08:13.043Z,100.00
2022-11-05T17:10:39.748Z,100.00
2022-11-05T17:13:06.215Z,100.00
2022-11-05T17:15:36.552Z,100.00
2022-11-05T17:18:04.726Z,100.00
2022-11-05T17:20:38.268Z,100.00
2022-11-05T17:23:06.817Z,100.00
2022-11-05T17:25:34.074Z,100.00
2022-11-05T17:28:00.587Z,100.00
2022-11-05T17:30:28.259Z,100.00
2022-11-05T17:32:54.846Z,100.00
2022-11-05T17:35:21.420Z,100.00
2022-11-05T17:37:47.971Z,100.00
2022-11-05T17:40:16.948Z,100.00
2022-11-05T17:42:43.610Z,100.00
2022-11-05T17:45:11.360Z,100.00
2022-11-05T17:47:37.988Z,100.00
2022-11-05T17:50:05.644Z,100.00
2022-11-05T17:52:32.169Z,100.00
2022-11-05T17:54:58.612Z,100.00
2022-11-05T17:57:25.121Z,100.00
2022-11-05T17:59:51.699Z,100.00
2022-11-05T18:02:18.319Z,100.00
2022-11-05T18:04:44.942Z,100.00
2022-11-05T18:07:11.380Z,100.00
2022-11-05T18:09:37.902Z,100.00
2022-11-05T18:12:04.718Z,100.00
2022-11-05T18:14:31.193Z,100.00
2022-11-05T18:17:00.125Z,100.00
2022-11-05T18:19:27.675Z,100.00
2022-11-05T18:21:54.873Z,100.00
2022-11-05T18:24:21.888Z,100.00
2022-11-05T18:26:48.650Z,100.00
2022-11-05T18:29:15.173Z,100.00
2022-11-05T18:31:41.618Z,100.00
2022-11-05T18:34:10.277Z,100.00
2022-11-05T18:36:36.801Z,100.00
2022-11-05T18:39:04.018Z,100.00
2022-11-05T18:41:30.544Z,100.00
2022-11-05T18:43:59.797Z,100.00
2022-11-05T18:46:51.643Z,100.00
2022-11-05T18:49:13.700Z,100.00
2022-11-05T18:51:40.424Z,100.00
2022-11-05T18:54:07.363Z,100.00
2022-11-05T18:56:33.839Z,100.00
2022-11-05T18:59:30.172Z,100.00
2022-11-05T19:01:47.089Z,100.00
2022-11-05T19:04:13.734Z,100.00
2022-11-05T19:06:40.562Z,100.00
2022-11-05T19:09:11.839Z,100.00
2022-11-05T19:11:39.009Z,100.00
2022-11-05T19:14:05.500Z,100.00
2022-11-05T19:16:32.035Z,100.00
2022-11-05T19:18:59.755Z,100.00
2022-11-05T19:21:26.734Z,100.00
2022-11-05T19:23:53.324Z,100.00
2022-11-05T19:26:28.119Z,100.00
2022-11-05T19:28:55.511Z,100.00
2022-11-05T19:31:23.518Z,100.00
2022-11-05T19:33:51.047Z,100.00
2022-11-05T19:36:18.633Z,100.00
2022-11-05T19:38:45.087Z,100.00
2022-11-05T19:41:14.080Z,100.00
2022-11-05T19:43:42.383Z,100.00
2022-11-05T19:46:14.266Z,100.00
2022-11-05T19:48:40.946Z,100.00
2022-11-05T19:51:09.463Z,100.00
2022-11-05T19:53:37.810Z,100.00
2022-11-05T19:56:06.512Z,100.00
2022-11-05T19:58:32.997Z,100.00
2022-11-05T20:00:59.479Z,100.00
2022-11-05T20:03:25.960Z,100.00
2022-11-05T20:05:52.458Z,100.00
2022-11-05T20:08:18.961Z,100.00
2022-11-05T20:10:46.156Z,100.00
2022-11-05T20:13:18.567Z,100.00
2022-11-05T20:15:47.728Z,100.00
2022-11-05T20:18:16.051Z,100.00
2022-11-05T20:20:43.903Z,100.00
2022-11-05T20:23:11.517Z,100.00
2022-11-05T20:25:38.506Z,100.00
2022-11-05T20:28:05.351Z,100.00
2022-11-05T20:30:31.903Z,100.00
2022-11-05T20:32:58.385Z,100.00
2022-11-05T20:35:25.028Z,100.00
2022-11-05T20:37:54.149Z,100.00
2022-11-05T20:40:20.969Z,100.00
2022-11-05T20:42:47.448Z,100.00
2022-11-05T20:45:13.917Z,100.00
2022-11-05T20:47:40.472Z,100.00
2022-11-05T20:50:07.883Z,100.00
2022-11-05T20:52:34.383Z,100.00
2022-11-05T20:55:02.189Z,100.00
2022-11-05T20:57:28.797Z,100.00
2022-11-05T20:59:55.325Z,100.00
2022-11-05T21:02:21.917Z,100.00
2022-11-05T21:04:48.587Z,100.00
2022-11-05T21:07:15.063Z,100.00
2022-11-05T21:09:41.512Z,100.00
2022-11-05T21:12:11.100Z,100.00
2022-11-05T21:14:41.348Z,100.00
2022-11-05T21:17:09.541Z,100.00
2022-11-05T21:19:36.397Z,100.00
2022-11-05T21:22:04.167Z,100.00
2022-11-05T21:24:31.807Z,100.00
2022-11-05T21:26:58.287Z,100.00
2022-11-05T21:29:24.922Z,100.00
2022-11-05T21:31:51.508Z,100.00
2022-11-05T21:34:18.856Z,100.00
2022-11-05T21:36:46.977Z,100.00
2022-11-05T21:39:14.043Z,100.00
2022-11-05T21:41:40.725Z,100.00
2022-11-05T21:44:07.238Z,100.00
2022-11-05T21:46:33.737Z,100.00
2022-11-05T21:49:00.245Z,100.00
2022-11-05T21:51:45.480Z,100.00
2022-11-05T21:54:30.490Z,100.00
2022-11-05T21:57:16.289Z,100.00
2022-11-05T21:59:48.548Z,100.00
2022-11-05T22:02:22.679Z,100.00
2022-11-05T22:05:03.058Z,100.00
2022-11-05T22:07:32.437Z,100.00
2022-11-05T22:10:01.302Z,100.00
2022-11-05T22:12:28.155Z,100.00
2022-11-05T22:14:55.072Z,100.00
2022-11-05T22:17:21.836Z,100.00
2022-11-05T22:19:48.389Z,100.00
2022-11-05T22:22:15.156Z,100.00
2022-11-05T22:24:42.093Z,100.00
2022-11-05T22:27:12.812Z,100.00
2022-11-05T22:29:40.543Z,100.00
2022-11-05T22:32:07.249Z,100.00
2022-11-05T22:34:33.729Z,100.00
2022-11-05T22:37:00.349Z,100.00
2022-11-05T22:39:26.811Z,100.00
2022-11-05T22:41:54.731Z,100.00
2022-11-05T22:44:21.438Z,100.00
2022-11-05T22:46:48.004Z,100.00
2022-11-05T22:49:14.785Z,100.00
2022-11-05T22:51:41.342Z,100.00
2022-11-05T22:54:09.101Z,100.00
2022-11-05T22:56:41.898Z,100.00
2022-11-05T22:59:11.934Z,100.00
2022-11-05T23:01:38.701Z,100.00
2022-11-05T23:04:05.461Z,100.00
2022-11-05T23:06:54.670Z,100.00
2022-11-05T23:09:42.384Z,100.00
2022-11-05T23:12:22.213Z,100.00
2022-11-05T23:14:49.999Z,100.00
2022-11-05T23:17:35.012Z,100.00
2022-11-05T23:20:20.182Z,100.00
2022-11-05T23:23:05.250Z,100.00
2022-11-05T23:25:31.743Z,100.00
2022-11-05T23:27:58.206Z,100.00
2022-11-05T23:30:26.175Z,100.00
2022-11-05T23:32:53.389Z,100.00
2022-11-05T23:35:43.142Z,100.00
2022-11-05T23:38:28.079Z,100.00
2022-11-05T23:41:13.020Z,100.00
2022-11-05T23:43:57.996Z,100.00
2022-11-05T23:46:43.075Z,100.00
2022-11-05T23:49:09.531Z,100.00
2022-11-05T23:51:35.983Z,100.00
2022-11-05T23:54:02.462Z,100.00
2022-11-05T23:56:28.904Z,100.00
2022-11-05T23:58:55.387Z,100.00
